createdAt,value
2018-12-08T01:43:53.726Z,14.40
2018-12-08T03:45:16.709Z,13.30
2018-12-08T03:48:26.204Z,13.30
2018-12-08T03:51:30.922Z,13.30
2018-12-08T03:54:39.734Z,13.20
2018-12-08T04:15:52.183Z,13.20
2018-12-08T04:36:10.267Z,13.20
2018-12-08T04:38:52.525Z,13.20
2018-12-08T04:41:32.037Z,13.10
2018-12-08T04:51:33.859Z,12.70
2018-12-08T04:54:30.092Z,12.50
2018-12-08T04:57:26.407Z,12.40
2018-12-08T05:00:37.017Z,12.20
2018-12-08T05:17:31.430Z,12.00
2018-12-08T05:23:59.087Z,11.90
2018-12-08T05:27:00.082Z,11.90
2018-12-08T05:29:44.662Z,11.90
2018-12-08T05:32:27.634Z,11.90
2018-12-08T05:35:15.756Z,11.90
2018-12-08T05:38:01.504Z,11.90
2018-12-08T05:40:51.560Z,12.00
2018-12-08T05:43:54.141Z,11.90
2018-12-08T05:50:00.146Z,12.00
2018-12-08T05:52:38.360Z,12.00
2018-12-08T05:55:24.150Z,12.00
2018-12-08T05:58:10.014Z,12.00
2018-12-08T06:01:07.270Z,12.00
2018-12-08T06:03:58.313Z,12.10
2018-12-08T06:06:50.833Z,12.10
2018-12-08T06:12:41.282Z,12.10
2018-12-08T06:15:43.827Z,12.00
2018-12-08T06:18:25.185Z,12.00
2018-12-08T06:21:27.952Z,12.00
2018-12-08T06:24:11.877Z,12.00
2018-12-08T06:29:06.030Z,12.00
2018-12-08T06:32:12.171Z,12.00
2018-12-08T06:35:10.507Z,11.90
2018-12-08T06:54:58.094Z,11.90
2018-12-08T06:57:43.004Z,11.90
2018-12-08T07:00:27.446Z,11.90
2018-12-08T07:06:47.298Z,12.00
2018-12-08T07:17:01.451Z,12.00
2018-12-08T07:20:49.021Z,12.00
2018-12-08T07:23:59.786Z,12.00
2018-12-08T07:27:00.138Z,12.00
2018-12-08T07:30:22.644Z,12.00
2018-12-08T07:33:50.464Z,12.00
2018-12-08T07:40:19.547Z,12.00
2018-12-08T07:43:20.726Z,12.00
2018-12-08T07:46:24.421Z,12.00
2018-12-08T07:49:16.262Z,12.00
2018-12-08T07:52:23.636Z,12.00
2018-12-08T07:55:27.425Z,12.00
2018-12-08T07:58:27.538Z,12.00
2018-12-08T08:01:38.096Z,12.00
2018-12-08T08:04:52.505Z,12.10
2018-12-08T08:07:59.032Z,12.10
2018-12-08T08:10:36.194Z,12.20
2018-12-08T08:13:30.340Z,12.20
2018-12-08T08:16:09.170Z,12.20
2018-12-08T08:20:58.652Z,12.30
2018-12-08T08:23:34.061Z,12.30
2018-12-08T08:26:08.378Z,12.40
2018-12-08T08:28:43.244Z,12.40
2018-12-08T08:31:18.793Z,12.50
2018-12-08T08:33:53.260Z,12.60
2018-12-08T08:36:27.729Z,12.60
2018-12-08T08:39:22.585Z,12.60
2018-12-08T08:41:58.154Z,12.60
2018-12-08T08:44:35.124Z,12.60
2018-12-08T08:47:35.475Z,12.70
2018-12-08T08:50:11.119Z,12.70
2018-12-08T08:52:48.689Z,12.70
2018-12-08T08:55:26.285Z,12.70
2018-12-08T08:58:08.093Z,12.70
2018-12-08T09:00:42.491Z,12.70
2018-12-08T09:03:16.793Z,12.70
2018-12-08T09:05:51.044Z,12.70
2018-12-08T09:08:25.899Z,12.70
2018-12-08T09:11:00.157Z,12.70
2018-12-08T09:13:34.439Z,12.70
2018-12-08T09:16:08.741Z,12.70
2018-12-08T09:18:45.576Z,12.80
2018-12-08T09:21:40.910Z,12.80
2018-12-08T09:24:52.771Z,12.80
2018-12-08T09:41:15.156Z,12.80
2018-12-08T09:43:53.563Z,13.00
2018-12-08T09:46:32.111Z,13.10
2018-12-08T09:49:06.459Z,13.10
2018-12-08T09:51:41.536Z,13.20
2018-12-08T09:54:17.814Z,13.20
2018-12-08T09:56:53.864Z,13.20
2018-12-08T09:59:28.318Z,13.20
2018-12-08T10:02:03.589Z,13.20
2018-12-08T10:04:38.021Z,13.20
2018-12-08T10:07:12.434Z,13.20
2018-12-08T10:09:46.765Z,13.30
2018-12-08T10:12:21.112Z,13.20
2018-12-08T10:14:55.423Z,13.20
2018-12-08T10:17:30.080Z,13.20
2018-12-08T10:20:04.831Z,13.30
2018-12-08T10:22:39.341Z,13.30
2018-12-08T10:25:13.728Z,13.30
2018-12-08T10:27:48.146Z,13.30
2018-12-08T10:30:22.524Z,13.30
2018-12-08T10:32:56.902Z,13.30
2018-12-08T10:35:31.308Z,13.30
2018-12-08T10:38:06.158Z,13.30
2018-12-08T10:40:40.545Z,13.30
2018-12-08T10:43:15.188Z,13.30
2018-12-08T10:45:49.864Z,13.30
2018-12-08T10:48:24.643Z,13.40
2018-12-08T10:50:59.497Z,13.40
2018-12-08T10:53:34.427Z,13.40
2018-12-08T10:56:09.448Z,13.40
2018-12-08T10:58:44.162Z,13.40
2018-12-08T11:01:22.152Z,13.40
2018-12-08T11:03:57.528Z,13.40
2018-12-08T11:06:32.410Z,13.40
2018-12-08T11:09:08.114Z,13.40
2018-12-08T11:11:43.167Z,13.50
2018-12-08T11:14:18.746Z,13.50
2018-12-08T11:16:53.571Z,13.50
2018-12-08T11:19:28.450Z,13.60
2018-12-08T11:22:05.074Z,13.60
2018-12-08T11:24:40.716Z,13.70
2018-12-08T11:27:16.794Z,13.70
2018-12-08T11:29:51.593Z,13.80
2018-12-08T11:32:26.510Z,13.80
2018-12-08T11:35:01.402Z,13.90
2018-12-08T11:37:37.313Z,13.90
2018-12-08T11:40:12.141Z,14.00
2018-12-08T11:42:47.049Z,14.00
2018-12-08T11:45:23.384Z,14.00
2018-12-08T11:47:58.526Z,14.10
2018-12-08T11:50:33.583Z,14.10
2018-12-08T11:53:08.648Z,14.10
2018-12-08T11:55:44.588Z,14.20
2018-12-08T11:58:20.185Z,14.20
2018-12-08T12:00:55.269Z,14.20
2018-12-08T12:03:30.954Z,14.20
2018-12-08T12:06:06.092Z,14.20
2018-12-08T12:08:42.015Z,14.30
2018-12-08T12:11:17.168Z,14.30
2018-12-08T12:13:52.810Z,14.30
2018-12-08T12:16:27.657Z,14.40
2018-12-08T12:19:03.300Z,14.40
2018-12-08T12:21:38.426Z,14.40
2018-12-08T12:24:14.614Z,14.40
2018-12-08T12:26:49.718Z,14.40
2018-12-08T12:29:25.316Z,14.50
2018-12-08T12:32:00.349Z,14.50
2018-12-08T12:34:35.410Z,14.60
2018-12-08T12:37:10.531Z,14.60
2018-12-08T12:39:46.146Z,14.70
2018-12-08T12:42:20.818Z,14.70
2018-12-08T12:44:55.917Z,14.70
2018-12-08T12:47:30.897Z,14.70
2018-12-08T12:50:07.097Z,14.70
2018-12-08T12:52:41.949Z,14.70
2018-12-08T12:55:16.931Z,14.70
2018-12-08T12:57:51.675Z,14.70
2018-12-08T13:00:26.579Z,14.70
2018-12-08T13:03:01.311Z,14.70
2018-12-08T13:05:36.284Z,14.70
2018-12-08T13:08:17.786Z,14.70
2018-12-08T13:10:52.681Z,14.70
2018-12-08T13:13:27.621Z,14.70
2018-12-08T13:16:02.306Z,14.70
2018-12-08T13:18:37.980Z,14.70
2018-12-08T13:21:12.996Z,14.70
2018-12-08T13:23:59.614Z,14.70
2018-12-08T13:26:34.611Z,14.70
2018-12-08T13:29:09.600Z,14.70
2018-12-08T13:31:45.275Z,14.70
2018-12-08T13:34:29.965Z,14.70
2018-12-08T13:37:04.255Z,14.60
2018-12-08T13:39:38.500Z,14.60
2018-12-08T13:42:16.175Z,14.60
2018-12-08T13:45:00.383Z,14.60
2018-12-08T13:47:34.699Z,14.60
2018-12-08T13:50:09.029Z,14.60
2018-12-08T13:52:43.308Z,14.60
2018-12-08T13:55:17.597Z,14.50
2018-12-08T13:57:51.927Z,14.50
2018-12-08T14:00:26.398Z,14.50
2018-12-08T14:03:00.774Z,14.40
2018-12-08T14:05:35.210Z,14.40
2018-12-08T14:08:09.608Z,14.40
2018-12-08T14:10:44.068Z,14.40
2018-12-08T14:13:18.424Z,14.40
2018-12-08T14:15:52.797Z,14.40
2018-12-08T14:18:27.196Z,14.50
2018-12-08T14:21:01.694Z,14.40
2018-12-08T14:23:36.044Z,14.40
2018-12-08T14:26:10.476Z,14.30
2018-12-08T14:28:44.952Z,14.30
2018-12-08T14:31:19.438Z,14.30
2018-12-08T14:33:54.255Z,14.30
2018-12-08T14:36:28.587Z,14.20
2018-12-08T14:39:02.988Z,14.20
2018-12-08T14:41:37.435Z,14.20
2018-12-08T14:44:11.807Z,14.20
2018-12-08T14:46:46.332Z,14.20
2018-12-08T14:49:20.708Z,14.20
2018-12-08T14:52:01.549Z,14.10
2018-12-08T14:54:35.885Z,14.10
2018-12-08T14:57:10.241Z,14.10
2018-12-08T14:59:44.569Z,14.00
2018-12-08T15:02:18.896Z,14.00
2018-12-08T15:04:53.208Z,13.90
2018-12-08T15:07:27.613Z,13.90
2018-12-08T15:10:01.925Z,13.90
2018-12-08T15:12:36.351Z,13.90
2018-12-08T15:15:11.297Z,13.60
2018-12-08T15:17:45.669Z,13.70
2018-12-08T15:20:20.015Z,13.80
2018-12-08T15:22:54.341Z,13.80
2018-12-08T15:25:28.728Z,13.90
2018-12-08T15:28:03.058Z,13.80
2018-12-08T15:30:42.363Z,13.90
2018-12-08T15:33:37.159Z,13.80
2018-12-08T15:36:24.795Z,13.80
2018-12-08T15:44:13.076Z,13.80
2018-12-08T15:47:13.871Z,13.80
2018-12-08T15:49:54.432Z,13.40
2018-12-08T15:52:32.640Z,13.30
2018-12-08T15:55:07.990Z,13.20
2018-12-08T15:57:42.976Z,13.20
2018-12-08T16:00:17.852Z,13.10
2018-12-08T16:02:52.736Z,13.10
2018-12-08T16:05:27.769Z,13.10
2018-12-08T16:08:02.848Z,13.10
2018-12-08T16:10:37.850Z,13.10
2018-12-08T16:13:13.612Z,13.10
2018-12-08T16:15:48.521Z,13.10
2018-12-08T16:18:23.394Z,13.10
2018-12-08T16:20:58.005Z,13.10
2018-12-08T16:23:32.855Z,13.20
2018-12-08T16:26:08.516Z,13.20
2018-12-08T16:28:43.309Z,13.20
2018-12-08T16:31:18.107Z,13.20
2018-12-08T16:33:52.845Z,13.20
2018-12-08T16:36:27.701Z,13.20
2018-12-08T16:39:02.513Z,13.20
2018-12-08T16:41:37.317Z,13.20
2018-12-08T16:44:12.056Z,13.20
2018-12-08T16:46:46.650Z,13.20
2018-12-08T16:49:23.887Z,13.20
2018-12-08T16:51:58.555Z,13.10
2018-12-08T16:54:34.658Z,13.10
2018-12-08T16:57:09.616Z,13.10
2018-12-08T16:59:44.442Z,13.00
2018-12-08T17:02:19.114Z,13.10
2018-12-08T17:04:53.967Z,13.00
2018-12-08T17:07:53.988Z,13.10
2018-12-08T17:17:22.336Z,13.30
2018-12-08T17:24:23.139Z,13.30
2018-12-08T17:31:03.658Z,13.30
2018-12-08T17:42:42.038Z,13.30
2018-12-08T18:00:26.346Z,13.30
2018-12-08T18:17:43.966Z,13.50
2018-12-08T18:20:40.284Z,13.60
2018-12-08T18:23:32.283Z,13.70
2018-12-08T18:26:26.817Z,13.70
2018-12-08T18:29:29.589Z,13.70
2018-12-08T18:32:28.403Z,13.70
2018-12-08T18:35:22.888Z,13.70
2018-12-08T18:38:19.059Z,13.70
2018-12-08T18:41:10.159Z,13.70
2018-12-08T18:44:00.890Z,13.70
2018-12-08T18:46:59.648Z,13.70
2018-12-08T18:50:07.218Z,13.70
2018-12-08T18:53:09.632Z,13.70
2018-12-08T18:56:13.859Z,13.80
2018-12-08T18:59:26.096Z,13.80
2018-12-08T19:02:19.721Z,13.80
2018-12-08T19:05:18.507Z,13.80
2018-12-08T19:11:27.824Z,13.80
2018-12-08T19:14:21.517Z,13.80
2018-12-08T19:17:22.470Z,13.80
2018-12-08T19:20:24.011Z,13.80
2018-12-08T19:26:29.717Z,13.80
2018-12-08T19:29:21.484Z,13.80
2018-12-08T19:32:23.673Z,13.80
2018-12-08T19:35:35.874Z,13.80
2018-12-08T19:38:49.317Z,13.80
2018-12-08T19:41:44.104Z,13.80
2018-12-08T19:44:42.208Z,13.90
2018-12-08T19:47:56.519Z,13.80
2018-12-08T19:51:15.486Z,13.80
2018-12-08T19:54:35.478Z,13.80
2018-12-08T19:57:47.204Z,13.90
2018-12-08T20:00:53.825Z,13.90
2018-12-08T20:21:33.788Z,13.90
2018-12-08T20:24:49.266Z,14.10
2018-12-08T20:27:51.292Z,14.00
2018-12-08T20:34:18.858Z,13.90
2018-12-08T20:45:16.183Z,13.80
2018-12-08T20:48:48.940Z,13.80
2018-12-08T20:52:21.128Z,13.80
2018-12-08T20:58:40.290Z,13.80
2018-12-08T21:01:54.774Z,13.80
2018-12-08T21:05:10.514Z,13.70
2018-12-08T21:08:35.713Z,13.80
2018-12-08T21:12:07.348Z,13.80
2018-12-08T21:15:46.842Z,13.80
2018-12-08T21:29:14.968Z,13.80
2018-12-08T21:32:22.174Z,13.80
2018-12-08T21:35:36.038Z,13.80
2018-12-08T21:42:19.491Z,13.80
2018-12-08T21:48:45.087Z,13.80
2018-12-08T21:55:18.669Z,13.80
2018-12-08T22:12:33.820Z,13.80
2018-12-08T22:19:03.121Z,13.70
2018-12-08T22:22:02.390Z,13.60
2018-12-08T22:25:06.026Z,13.50
2018-12-08T22:28:12.675Z,13.40
2018-12-08T23:23:39.783Z,13.10
2018-12-08T23:27:21.237Z,13.00
